Time;durP1;ratioP1;P1;durP2;ratioP2;P2;SDS_P1;SDS_P2;PMS_P1;PMS_P2;Temp;Humidity;BMP_temperature;BMP_pressure;BME280_temperature;BME280_humidity;BME280_pressure;Samples;Min_cycle;Max_cycle;Signal;HPM_P1;HPM_P2
2022/10/31 00:00:08;;;;;;;16.63;10.68;;;;;;;15.57;64.02;101458.72;827631;23;1058;-74
2022/10/31 00:00:31;;;;;;;15.40;10.18;;;;;;;15.59;64.06;101458.72;827018;23;1036;-74
2022/10/31 00:00:52;;;;;;;15.40;9.40;;;;;;;15.60;63.97;101461.38;833647;23;764;-74
2022/10/31 00:01:16;;;;;;;15.32;9.30;;;;;;;15.59;63.97;101458.72;831893;23;1146;-74
2022/10/31 00:01:38;;;;;;;17.50;9.85;;;;;;;15.60;63.86;101456.13;828026;23;1001;-74
2022/10/31 00:01:59;;;;;;;14.68;9.52;;;;;;;15.63;63.79;101458.81;829404;23;1077;-74
2022/10/31 00:02:19;;;;;;;17.08;10.00;;;;;;;15.63;63.74;101450.91;824062;23;1209;-74
2022/10/31 00:02:40;;;;;;;16.87;10.20;;;;;;;15.70;63.75;101461.53;821555;24;804;-74
2022/10/31 00:03:09;;;;;;;19.10;10.23;;;;;;;15.71;63.70;101452.78;822948;24;959;-74
2022/10/31 00:03:30;;;;;;;15.75;9.70;;;;;;;15.67;63.71;101461.50;830077;23;815;-75
2022/10/31 00:03:51;;;;;;;12.40;9.67;;;;;;;15.72;63.63;101459.81;828041;23;1024;-74
2022/10/31 00:04:11;;;;;;;11.57;9.27;;;;;;;15.61;63.51;101452.63;831577;23;1056;-74
2022/10/31 00:04:32;;;;;;;13.73;9.80;;;;;;;15.64;63.66;101457.06;830119;23;815;-74
2022/10/31 00:04:53;;;;;;;14.27;9.70;;;;;;;15.68;63.75;101463.28;831983;23;1262;-75
2022/10/31 00:05:14;;;;;;;15.10;10.20;;;;;;;15.71;63.60;101468.56;831952;23;1169;-74
2022/10/31 00:05:48;;;;;;;14.30;9.90;;;;;;;15.65;63.66;101458.84;833200;23;728;-74
2022/10/31 00:06:10;;;;;;;15.32;9.95;;;;;;;15.60;63.96;101456.13;833095;23;1106;-74
2022/10/31 00:06:31;;;;;;;17.48;10.15;;;;;;;15.62;63.59;101451.78;835653;23;834;-75
2022/10/31 00:06:51;;;;;;;17.80;10.13;;;;;;;15.61;63.67;101446.50;837284;23;767;-74
2022/10/31 00:07:12;;;;;;;15.75;9.75;;;;;;;15.59;63.77;101449.09;828517;23;1014;-74
2022/10/31 00:07:32;;;;;;;13.50;9.40;;;;;;;15.63;63.75;101456.16;833376;23;791;-74
2022/10/31 00:07:53;;;;;;;14.47;9.30;;;;;;;15.65;63.78;101461.47;833332;23;757;-74
2022/10/31 00:08:15;;;;;;;15.60;9.30;;;;;;;15.63;63.91;101460.56;836684;23;978;-75
2022/10/31 00:08:35;;;;;;;15.75;9.02;;;;;;;15.55;63.96;101447.25;829466;23;966;-75
2022/10/31 00:08:59;;;;;;;13.60;8.90;;;;;;;15.55;63.82;101452.50;824876;23;1132;-74
2022/10/31 00:09:20;;;;;;;13.80;8.80;;;;;;;15.57;63.88;101456.09;830826;23;1227;-74
2022/10/31 00:09:40;;;;;;;14.38;9.00;;;;;;;15.54;63.76;101450.75;830925;23;899;-74
2022/10/31 00:10:01;;;;;;;15.20;9.33;;;;;;;15.54;63.90;101445.47;827971;23;1160;-74
2022/10/31 00:10:21;;;;;;;16.60;9.45;;;;;;;15.59;63.97;101458.72;829300;23;975;-74
2022/10/31 00:10:43;;;;;;;17.30;9.63;;;;;;;15.53;64.00;101454.25;830151;23;1913;-74
2022/10/31 00:11:07;;;;;;;15.95;9.55;;;;;;;15.56;63.83;101450.78;827993;23;1080;-74
2022/10/31 00:11:28;;;;;;;16.38;9.82;;;;;;;15.55;63.84;101460.41;830679;23;823;-74
2022/10/31 00:11:49;;;;;;;15.37;10.50;;;;;;;15.56;63.78;101459.53;834643;23;807;-74
2022/10/31 00:12:09;;;;;;;16.00;10.53;;;;;;;15.62;63.85;101464.06;837205;23;1024;-74
2022/10/31 00:12:30;;;;;;;14.68;9.98;;;;;;;15.62;63.80;101459.66;831822;23;1220;-75
2022/10/31 00:12:51;;;;;;;14.90;9.40;;;;;;;15.67;63.82;101454.47;833166;23;1035;-75
2022/10/31 00:13:13;;;;;;;15.90;9.55;;;;;;;15.68;63.70;101463.28;831801;23;1013;-74
2022/10/31 00:13:34;;;;;;;16.98;9.70;;;;;;;15.75;63.74;101467.78;827798;23;835;-74
2022/10/31 00:13:54;;;;;;;17.83;9.97;;;;;;;15.71;63.56;101466.84;828077;23;1405;-74
2022/10/31 00:14:15;;;;;;;18.60;10.30;;;;;;;15.75;63.37;101459.91;826411;23;976;-75
2022/10/31 00:14:36;;;;;;;20.52;10.27;;;;;;;15.74;63.38;101456.38;829465;23;779;-74
2022/10/31 00:14:56;;;;;;;18.70;9.93;;;;;;;15.82;63.31;101463.50;824902;23;1087;-74
2022/10/31 00:15:17;;;;;;;17.65;9.80;;;;;;;15.79;63.47;101456.44;829430;23;1019;-74
2022/10/31 00:15:39;;;;;;;15.07;10.00;;;;;;;15.85;63.50;101467.09;828156;23;1230;-75
2022/10/31 00:16:02;;;;;;;14.18;10.05;;;;;;;15.90;63.32;101465.44;828634;23;1243;-74
2022/10/31 00:16:25;;;;;;;13.60;9.75;;;;;;;15.85;63.29;101460.94;831926;23;896;-75
2022/10/31 00:16:45;;;;;;;12.98;9.50;;;;;;;15.93;63.23;101468.97;832979;23;932;-74
2022/10/31 00:17:06;;;;;;;13.90;9.55;;;;;;;15.88;63.29;101451.31;831891;23;1366;-74
2022/10/31 00:17:27;;;;;;;13.85;9.57;;;;;;;15.88;63.29;101453.97;832023;23;800;-75
2022/10/31 00:17:47;;;;;;;13.55;9.50;;;;;;;15.87;63.22;101449.56;829368;23;854;-74
2022/10/31 00:18:09;;;;;;;14.50;9.60;;;;;;;15.94;63.03;101461.09;833413;23;1065;-74
2022/10/31 00:18:29;;;;;;;13.77;9.70;;;;;;;15.94;63.23;101463.72;833248;23;961;-75
2022/10/31 00:18:54;;;;;;;13.73;9.90;;;;;;;15.94;63.35;101455.84;834128;23;947;-74
2022/10/31 00:19:15;;;;;;;14.95;9.75;;;;;;;16.00;63.15;101468.22;837186;23;1005;-74
2022/10/31 00:19:36;;;;;;;15.40;9.60;;;;;;;15.98;63.11;101459.41;834238;23;788;-75
2022/10/31 00:19:56;;;;;;;13.73;9.38;;;;;;;15.98;63.11;101464.66;837181;23;954;-75
2022/10/31 00:20:17;;;;;;;12.10;9.30;;;;;;;16.00;63.10;101470.84;834586;23;1520;-74
2022/10/31 00:20:38;;;;;;;11.93;9.23;;;;;;;15.97;62.98;101461.13;833157;23;1148;-74
2022/10/31 00:21:03;;;;;;;12.38;9.10;;;;;;;15.99;62.96;101463.81;828007;23;936;-75
2022/10/31 00:21:24;;;;;;;12.57;9.20;;;;;;;15.97;63.38;101465.53;829412;23;818;-74
2022/10/31 00:21:45;;;;;;;14.07;9.20;;;;;;;15.95;63.23;101462.88;829461;23;783;-74
2022/10/31 00:22:05;;;;;;;14.97;10.07;;;;;;;15.97;63.18;101470.78;825419;23;976;-75
2022/10/31 00:22:26;;;;;;;14.95;10.00;;;;;;;15.97;63.13;101476.06;826954;23;720;-74
2022/10/31 00:22:46;;;;;;;14.17;10.20;;;;;;;15.95;63.15;101472.50;832150;23;806;-74
2022/10/31 00:23:07;;;;;;;13.48;9.98;;;;;;;15.95;63.36;101472.50;837116;23;1041;-74
2022/10/31 00:23:28;;;;;;;14.38;10.32;;;;;;;15.91;63.26;101463.66;837111;23;800;-74
2022/10/31 00:23:49;;;;;;;17.50;10.65;;;;;;;15.94;63.33;101469.00;831484;23;1213;-74
2022/10/31 00:24:10;;;;;;;17.60;10.33;;;;;;;15.97;63.24;101474.28;831640;23;1100;-74
2022/10/31 00:24:31;;;;;;;17.05;10.35;;;;;;;15.98;63.35;101477.84;827668;23;863;-74
2022/10/31 00:24:51;;;;;;;14.70;10.00;;;;;;;15.99;63.29;101475.19;828022;23;1267;-74
2022/10/31 00:25:12;;;;;;;13.68;9.80;;;;;;;15.90;63.27;101460.16;828060;23;1154;-74
2022/10/31 00:25:35;;;;;;;13.05;9.40;;;;;;;15.95;63.25;101472.50;830031;23;775;-74
2022/10/31 00:26:01;;;;;;;14.88;9.80;;;;;;;15.94;63.21;101470.72;829030;23;1674;-74
2022/10/31 00:26:22;;;;;;;16.60;10.65;;;;;;;15.94;63.23;101462.84;835381;23;807;-74
2022/10/31 00:26:42;;;;;;;15.73;10.52;;;;;;;15.97;63.16;101473.44;837233;23;747;-74
2022/10/31 00:27:03;;;;;;;15.27;10.57;;;;;;;15.97;63.29;101468.16;837328;23;1113;-74
2022/10/31 00:27:23;;;;;;;15.30;10.38;;;;;;;15.96;63.16;101469.91;835823;23;1111;-74
2022/10/31 00:27:44;;;;;;;14.63;10.07;;;;;;;16.02;62.88;101477.91;828545;23;993;-74
2022/10/31 00:28:07;;;;;;;12.88;9.68;;;;;;;15.99;63.11;101469.06;833328;23;975;-74
2022/10/31 00:28:30;;;;;;;14.50;9.40;;;;;;;15.98;63.35;101468.16;827611;23;1381;-74
2022/10/31 00:28:50;;;;;;;15.02;9.65;;;;;;;16.03;63.16;101478.78;820176;24;896;-74
2022/10/31 00:29:12;;;;;;;14.98;9.63;;;;;;;15.95;63.24;101467.22;821489;24;980;-74
2022/10/31 00:29:33;;;;;;;12.55;9.35;;;;;;;15.97;63.19;101476.94;823998;23;837;-74
2022/10/31 00:29:54;;;;;;;11.83;8.83;;;;;;;15.99;63.33;101472.56;821429;24;768;-74
2022/10/31 00:30:15;;;;;;;11.38;8.80;;;;;;;16.02;63.30;101480.53;820046;24;1087;-74
2022/10/31 00:30:36;;;;;;;12.90;9.30;;;;;;;16.02;63.26;101479.63;819776;24;1090;-74
2022/10/31 00:31:04;;;;;;;13.40;9.80;;;;;;;16.01;63.28;101477.88;825289;24;1882;-74
2022/10/31 00:31:25;;;;;;;14.95;9.60;;;;;;;16.05;63.49;101479.72;821705;24;792;-74
2022/10/31 00:31:46;;;;;;;15.30;9.97;;;;;;;16.06;63.23;101481.47;827494;23;846;-74
2022/10/31 00:32:06;;;;;;;13.40;9.80;;;;;;;16.12;62.88;101489.44;825943;23;1005;-74
2022/10/31 00:32:30;;;;;;;12.00;9.52;;;;;;;16.09;63.29;101476.25;831234;23;788;-74
2022/10/31 00:32:50;;;;;;;12.55;9.27;;;;;;;16.10;63.12;101483.28;829533;23;831;-72
2022/10/31 00:33:13;;;;;;;13.68;9.50;;;;;;;16.10;63.17;101478.03;827813;23;971;-72
2022/10/31 00:33:36;;;;;;;14.52;9.40;;;;;;;16.15;63.17;101486.88;824127;24;1391;-72
2022/10/31 00:33:57;;;;;;;14.10;9.25;;;;;;;16.15;63.23;101492.16;828180;23;1219;-72
2022/10/31 00:34:20;;;;;;;12.43;9.02;;;;;;;16.12;63.02;101480.69;825404;24;1214;-73
2022/10/31 00:34:41;;;;;;;13.03;9.50;;;;;;;16.18;63.12;101486.06;824099;24;852;-72
2022/10/31 00:35:02;;;;;;;12.75;9.43;;;;;;;16.13;62.95;101482.44;825405;24;1046;-73
2022/10/31 00:35:22;;;;;;;13.60;9.50;;;;;;;16.18;63.14;101480.78;825547;23;779;-72
2022/10/31 00:35:49;;;;;;;12.07;9.10;;;;;;;16.14;62.86;101474.59;829402;23;768;-75
2022/10/31 00:36:16;;;;;;;13.25;9.75;;;;;;;16.14;62.93;101478.94;827962;23;1062;-75
2022/10/31 00:36:37;;;;;;;14.25;9.60;;;;;;;16.19;63.05;101482.56;819862;24;2054;-75
2022/10/31 00:37:01;;;;;;;14.98;9.70;;;;;;;16.10;63.09;101466.63;821037;24;1154;-75
2022/10/31 00:37:22;;;;;;;16.25;10.10;;;;;;;16.12;63.05;101476.28;824080;23;1009;-75
2022/10/31 00:37:42;;;;;;;15.90;10.20;;;;;;;16.20;63.04;101488.69;825393;24;795;-75
2022/10/31 00:38:03;;;;;;;16.10;10.30;;;;;;;16.13;63.01;101483.34;825488;24;1113;-75
2022/10/31 00:38:23;;;;;;;16.75;10.13;;;;;;;16.21;63.11;101490.50;827716;23;795;-74
2022/10/31 00:38:46;;;;;;;17.88;10.43;;;;;;;16.15;62.99;101478.09;834523;23;803;-75
2022/10/31 00:39:06;;;;;;;16.80;9.80;;;;;;;16.13;63.17;101480.72;835760;23;1253;-75
2022/10/31 00:39:27;;;;;;;15.40;9.93;;;;;;;16.12;63.18;101471.03;837282;23;1045;-75
2022/10/31 00:39:49;;;;;;;13.15;9.75;;;;;;;16.11;63.06;101474.53;837440;23;724;-75
2022/10/31 00:40:10;;;;;;;14.68;10.35;;;;;;;16.11;63.24;101471.03;835817;23;1189;-75
2022/10/31 00:40:31;;;;;;;15.85;10.40;;;;;;;16.20;62.97;101486.06;833049;23;783;-75
2022/10/31 00:40:51;;;;;;;15.30;10.40;;;;;;;16.21;63.16;101495.75;831968;23;1017;-75
2022/10/31 00:41:14;;;;;;;14.80;9.98;;;;;;;16.18;63.07;101481.66;832847;23;1051;-72
2022/10/31 00:41:35;;;;;;;13.73;9.70;;;;;;;16.18;62.90;101476.41;825804;23;956;-73
2022/10/31 00:41:55;;;;;;;13.80;9.17;;;;;;;16.23;63.07;101489.63;825444;24;1030;-72
2022/10/31 00:42:16;;;;;;;13.70;9.30;;;;;;;16.18;62.98;101480.78;826254;23;1078;-72
2022/10/31 00:42:41;;;;;;;13.40;9.48;;;;;;;16.21;62.91;101482.59;827903;23;851;-72
2022/10/31 00:43:01;;;;;;;11.45;9.32;;;;;;;16.21;62.98;101485.22;828005;23;1116;-73
2022/10/31 00:43:22;;;;;;;13.00;9.23;;;;;;;16.24;62.94;101490.53;829346;23;732;-72
2022/10/31 00:43:43;;;;;;;14.02;9.30;;;;;;;16.16;62.71;101472.84;830540;23;779;-72
2022/10/31 00:44:04;;;;;;;18.02;9.65;;;;;;;16.18;62.97;101481.66;827423;23;1221;-72
2022/10/31 00:44:24;;;;;;;17.27;9.77;;;;;;;16.24;63.07;101486.16;829440;23;779;-72
2022/10/31 00:44:46;;;;;;;17.42;9.80;;;;;;;16.23;62.94;101486.13;828089;23;823;-72
2022/10/31 00:45:09;;;;;;;15.03;10.17;;;;;;;16.26;63.01;101488.84;829296;23;1001;-71
2022/10/31 00:45:30;;;;;;;15.95;9.80;;;;;;;16.23;62.88;101484.38;824010;24;831;-72
2022/10/31 00:45:50;;;;;;;14.95;9.65;;;;;;;16.21;62.87;101479.97;827882;23;1121;-72
2022/10/31 00:46:11;;;;;;;15.43;10.20;;;;;;;16.17;62.99;101477.25;824061;24;1469;-72
2022/10/31 00:46:32;;;;;;;14.80;10.60;;;;;;;16.22;63.01;101482.59;826399;23;852;-72
2022/10/31 00:46:52;;;;;;;18.35;10.60;;;;;;;16.18;62.99;101473.75;825471;24;760;-73
2022/10/31 00:47:15;;;;;;;16.52;9.88;;;;;;;16.21;63.02;101479.97;825369;24;1012;-72
2022/10/31 00:47:42;;;;;;;17.02;9.85;;;;;;;16.22;62.89;101477.31;823548;24;1485;-72
2022/10/31 00:48:02;;;;;;;15.68;10.20;;;;;;;16.27;62.93;101482.69;825445;24;1031;-72
2022/10/31 00:48:23;;;;;;;16.40;10.20;;;;;;;16.23;63.00;101484.38;827919;23;760;-72
2022/10/31 00:48:44;;;;;;;16.50;10.10;;;;;;;16.29;62.80;101491.53;829223;23;744;-72
2022/10/31 00:49:04;;;;;;;13.15;9.75;;;;;;;16.26;62.72;101479.19;825453;24;1074;-72
2022/10/31 00:49:25;;;;;;;14.10;10.00;;;;;;;16.27;62.75;101482.69;828089;23;1463;-72
2022/10/31 00:49:46;;;;;;;15.65;10.32;;;;;;;16.25;62.67;101476.53;827191;23;1418;-72
2022/10/31 00:50:07;;;;;;;16.50;10.30;;;;;;;16.29;62.45;101481.00;827959;23;1218;-72
2022/10/31 00:50:27;;;;;;;18.40;10.82;;;;;;;16.29;62.83;101488.91;823960;24;832;-72
2022/10/31 00:50:48;;;;;;;19.08;10.77;;;;;;;16.30;62.79;101474.88;825545;24;1911;-72
2022/10/31 00:51:09;;;;;;;19.05;10.85;;;;;;;16.28;62.85;101481.84;825486;24;957;-73
2022/10/31 00:51:30;;;;;;;17.05;10.52;;;;;;;16.31;62.70;101485.41;829409;23;771;-72
2022/10/31 00:51:52;;;;;;;16.17;10.35;;;;;;;16.28;62.58;101469.56;829498;23;826;-72
2022/10/31 00:52:13;;;;;;;15.35;10.05;;;;;;;16.29;62.62;101468.69;827788;23;1153;-72
2022/10/31 00:52:33;;;;;;;14.40;9.80;;;;;;;16.31;62.75;101471.38;825441;24;708;-72
2022/10/31 00:52:54;;;;;;;15.30;9.60;;;;;;;16.29;62.63;101467.84;824126;23;1321;-72
2022/10/31 00:53:15;;;;;;;16.63;10.00;;;;;;;16.27;62.61;101469.53;825458;23;1000;-72
2022/10/31 00:53:36;;;;;;;17.10;10.07;;;;;;;16.29;62.94;101471.34;827069;23;1304;-72
2022/10/31 00:53:57;;;;;;;14.55;9.57;;;;;;;16.28;62.74;101466.94;833314;23;1128;-72
2022/10/31 00:54:17;;;;;;;13.55;9.10;;;;;;;16.29;62.69;101478.38;833092;23;1013;-73
2022/10/31 00:54:38;;;;;;;13.00;9.00;;;;;;;16.28;62.70;101469.56;829188;23;737;-73
2022/10/31 00:54:59;;;;;;;15.35;9.70;;;;;;;16.32;62.83;101483.66;831764;23;990;-72
2022/10/31 00:55:20;;;;;;;17.10;9.73;;;;;;;16.30;62.71;101469.59;827635;23;1243;-72
2022/10/31 00:55:43;;;;;;;16.73;10.07;;;;;;;16.29;62.72;101468.69;829136;23;797;-72
2022/10/31 00:56:05;;;;;;;16.92;10.02;;;;;;;16.33;62.83;101480.16;825642;23;958;-72
2022/10/31 00:56:25;;;;;;;17.77;10.63;;;;;;;16.26;62.92;101467.75;827944;23;862;-72
2022/10/31 00:56:46;;;;;;;16.75;9.95;;;;;;;16.30;62.80;101481.00;831866;23;791;-72
2022/10/31 00:57:07;;;;;;;13.83;9.20;;;;;;;16.31;62.81;101482.78;831268;23;1129;-72
2022/10/31 00:57:27;;;;;;;11.77;8.95;;;;;;;16.32;62.71;101478.41;835872;23;1226;-72
2022/10/31 00:57:48;;;;;;;13.17;9.10;;;;;;;16.29;62.76;101470.47;831673;23;1225;-72
2022/10/31 00:58:10;;;;;;;13.57;9.55;;;;;;;16.27;62.89;101474.78;823241;24;1375;-72
2022/10/31 00:58:31;;;;;;;14.88;9.50;;;;;;;16.28;62.85;101476.56;825002;24;814;-71
2022/10/31 00:58:52;;;;;;;16.27;9.63;;;;;;;16.28;62.75;101468.66;823499;24;1178;-72
2022/10/31 00:59:14;;;;;;;14.57;9.50;;;;;;;16.24;62.73;101466.81;829030;23;1038;-72
2022/10/31 00:59:35;;;;;;;15.30;9.45;;;;;;;16.26;62.90;101467.75;824866;24;776;-72
2022/10/31 00:59:56;;;;;;;15.30;9.50;;;;;;;16.28;62.81;101479.19;823668;23;1050;-72
2022/10/31 01:00:16;;;;;;;22.20;10.03;;;;;;;16.29;62.81;101479.22;823798;24;1013;-72
2022/10/31 01:00:37;;;;;;;21.17;9.90;;;;;;;16.26;62.84;101463.41;825165;24;874;-72
2022/10/31 01:00:58;;;;;;;21.23;9.70;;;;;;;16.27;62.82;101474.78;827762;23;1186;-72
2022/10/31 01:01:18;;;;;;;15.10;9.10;;;;;;;16.32;62.91;101481.03;827892;23;1193;-72
2022/10/31 01:01:39;;;;;;;12.93;9.50;;;;;;;16.30;62.80;101475.72;825267;24;787;-73
2022/10/31 01:02:00;;;;;;;13.50;9.77;;;;;;;16.34;62.80;101481.94;823981;24;1256;-72
2022/10/31 01:02:21;;;;;;;14.35;10.30;;;;;;;16.29;62.73;101470.47;824079;24;1528;-72
2022/10/31 01:02:41;;;;;;;15.67;10.30;;;;;;;16.28;62.84;101464.28;827841;23;1178;-72
2022/10/31 01:03:02;;;;;;;15.13;10.02;;;;;;;16.30;62.76;101474.88;829109;23;1078;-72
2022/10/31 01:03:28;;;;;;;14.93;9.80;;;;;;;16.28;62.87;101466.94;829300;23;756;-72
2022/10/31 01:03:49;;;;;;;15.10;9.98;;;;;;;16.32;62.97;101483.66;829133;23;800;-72
2022/10/31 01:04:09;;;;;;;15.00;10.20;;;;;;;16.31;63.00;101472.22;830731;23;1095;-72
2022/10/31 01:04:30;;;;;;;15.03;10.27;;;;;;;16.27;63.05;101466.91;833273;23;1264;-72
2022/10/31 01:04:51;;;;;;;13.73;9.80;;;;;;;16.23;62.98;101458.03;833263;23;814;-72
2022/10/31 01:05:12;;;;;;;14.77;9.70;;;;;;;16.22;63.00;101463.28;823864;24;1102;-72
2022/10/31 01:05:32;;;;;;;14.45;9.60;;;;;;;16.22;63.02;101461.53;825428;24;791;-72
2022/10/31 01:06:03;;;;;;;13.57;9.47;;;;;;;16.25;63.15;101479.16;824134;24;1239;-72
2022/10/31 01:06:26;;;;;;;13.88;9.18;;;;;;;16.15;62.96;101465.81;827974;23;847;-72
2022/10/31 01:06:47;;;;;;;13.55;9.65;;;;;;;16.13;63.18;101462.28;828940;23;915;-73
2022/10/31 01:07:12;;;;;;;13.85;10.20;;;;;;;16.08;63.19;101463.94;829286;23;1005;-73
2022/10/31 01:07:36;;;;;;;13.82;10.05;;;;;;;16.04;63.25;101456.84;831314;23;1281;-72
2022/10/31 01:07:56;;;;;;;14.93;10.30;;;;;;;16.09;63.01;101465.72;829232;23;1002;-73
2022/10/31 01:08:17;;;;;;;14.23;10.05;;;;;;;16.10;63.21;101477.16;831889;23;1204;-73
2022/10/31 01:08:38;;;;;;;14.30;10.37;;;;;;;16.06;63.26;101476.22;833332;23;760;-73
2022/10/31 01:08:59;;;;;;;12.55;9.73;;;;;;;16.09;63.40;101486.78;827841;23;1234;-73
2022/10/31 01:09:19;;;;;;;12.83;9.80;;;;;;;16.05;63.40;101474.44;829325;23;1086;-73
2022/10/31 01:09:40;;;;;;;12.38;9.90;;;;;;;16.03;63.41;101478.78;823470;24;820;-73
2022/10/31 01:10:00;;;;;;;13.57;10.33;;;;;;;16.06;63.42;101480.56;820223;24;1150;-73
2022/10/31 01:10:22;;;;;;;13.48;10.30;;;;;;;15.96;63.54;101469.00;825510;24;1087;-73
2022/10/31 01:10:43;;;;;;;14.55;10.05;;;;;;;15.94;63.56;101481.25;823996;24;1945;-73
2022/10/31 01:11:12;;;;;;;14.40;9.70;;;;;;;15.93;63.75;101476.84;829329;23;1035;-73
2022/10/31 01:11:34;;;;;;;13.50;9.15;;;;;;;15.90;63.81;101475.06;825354;24;816;-73
2022/10/31 01:11:57;;;;;;;13.43;8.80;;;;;;;15.90;63.99;101483.84;827765;23;1089;-73
2022/10/31 01:12:18;;;;;;;13.23;8.90;;;;;;;15.90;63.87;101478.59;825441;23;1122;-73
2022/10/31 01:12:45;;;;;;;12.77;9.20;;;;;;;15.91;63.93;101482.09;823868;24;1029;-73
2022/10/31 01:13:05;;;;;;;14.63;9.85;;;;;;;15.89;63.95;101479.44;823982;24;1111;-73
2022/10/31 01:13:26;;;;;;;16.05;10.02;;;;;;;15.91;63.94;101476.81;824160;23;1167;-73
2022/10/31 01:13:47;;;;;;;14.60;9.88;;;;;;;15.92;63.95;101482.97;831337;23;1441;-73
2022/10/31 01:14:08;;;;;;;15.30;9.75;;;;;;;15.96;63.91;101476.91;831653;23;1255;-73
2022/10/31 01:14:29;;;;;;;13.63;9.50;;;;;;;15.98;63.77;101488.38;829331;23;716;-73
2022/10/31 01:14:51;;;;;;;13.30;9.57;;;;;;;15.96;63.90;101476.91;827783;23;858;-73
2022/10/31 01:15:16;;;;;;;14.02;9.65;;;;;;;15.98;63.70;101483.97;833146;23;1056;-73
2022/10/31 01:15:36;;;;;;;13.75;9.70;;;;;;;15.99;63.70;101483.09;823917;23;1465;-73
2022/10/31 01:15:58;;;;;;;15.30;10.27;;;;;;;15.95;63.72;101476.03;823888;23;1058;-73
2022/10/31 01:16:23;;;;;;;14.05;10.02;;;;;;;16.03;63.83;101494.56;825303;23;963;-73
2022/10/31 01:16:44;;;;;;;14.47;9.83;;;;;;;15.96;63.71;101475.16;823937;23;1549;-73
2022/10/31 01:17:04;;;;;;;13.77;9.70;;;;;;;15.96;63.71;101469.00;829256;23;1002;-74
2022/10/31 01:17:25;;;;;;;14.30;9.90;;;;;;;16.00;63.70;101482.22;825616;24;775;-73
2022/10/31 01:17:46;;;;;;;15.00;10.20;;;;;;;16.01;63.87;101488.41;829286;23;749;-73
2022/10/31 01:18:07;;;;;;;14.35;9.90;;;;;;;16.01;63.83;101485.75;829323;23;1039;-74
2022/10/31 01:18:28;;;;;;;15.05;10.10;;;;;;;16.00;63.87;101494.53;824632;23;1126;-74
2022/10/31 01:18:49;;;;;;;16.27;10.65;;;;;;;15.97;63.79;101479.56;829154;23;937;-73
2022/10/31 01:19:10;;;;;;;16.80;10.65;;;;;;;16.05;63.79;101487.59;831739;23;943;-73
2022/10/31 01:19:31;;;;;;;14.68;10.10;;;;;;;16.03;63.57;101481.41;823766;24;812;-73
2022/10/31 01:19:51;;;;;;;13.27;9.50;;;;;;;16.03;63.45;101473.50;828874;23;752;-73
2022/10/31 01:20:13;;;;;;;14.68;9.85;;;;;;;16.02;63.58;101471.75;831778;23;1248;-72
2022/10/31 01:20:34;;;;;;;14.50;10.02;;;;;;;16.04;63.59;101477.91;829268;23;771;-72
2022/10/31 01:21:07;;;;;;;14.65;10.35;;;;;;;16.06;63.53;101480.56;829265;23;966;-73
2022/10/31 01:21:28;;;;;;;13.95;10.20;;;;;;;16.11;63.51;101497.34;832424;23;1008;-73
2022/10/31 01:21:54;;;;;;;13.10;9.80;;;;;;;16.09;63.55;101492.03;829504;23;898;-73
2022/10/31 01:22:15;;;;;;;16.33;9.80;;;;;;;16.09;63.50;101481.50;829398;23;1122;-73
2022/10/31 01:22:36;;;;;;;16.33;9.57;;;;;;;16.07;63.52;101488.50;820227;24;1151;-72
2022/10/31 01:22:57;;;;;;;17.20;10.07;;;;;;;16.08;63.58;101479.75;820058;24;1158;-73
2022/10/31 01:23:18;;;;;;;16.90;9.98;;;;;;;16.09;63.55;101480.66;824067;24;1243;-73
2022/10/31 01:23:38;;;;;;;16.83;10.10;;;;;;;16.15;63.54;101486.88;825334;24;758;-73
2022/10/31 01:24:01;;;;;;;16.80;9.80;;;;;;;16.11;63.61;101479.78;821628;24;932;-73
2022/10/31 01:24:22;;;;;;;14.88;9.70;;;;;;;16.13;63.66;101483.34;824204;24;823;-72
2022/10/31 01:24:42;;;;;;;15.65;10.00;;;;;;;16.08;63.75;101479.75;826327;23;897;-73
2022/10/31 01:25:04;;;;;;;13.63;9.70;;;;;;;16.17;63.70;101489.56;826114;23;1063;-73
2022/10/31 01:25:24;;;;;;;14.63;9.88;;;;;;;16.12;63.77;101480.69;823861;24;1265;-72
2022/10/31 01:25:45;;;;;;;14.57;9.43;;;;;;;16.12;63.77;101481.56;825418;24;737;-72
2022/10/31 01:26:09;;;;;;;14.50;9.77;;;;;;;16.18;63.76;101492.19;822334;23;1087;-73
2022/10/31 01:26:31;;;;;;;13.30;9.68;;;;;;;16.12;64.04;101481.56;829468;23;756;-73
2022/10/31 01:26:52;;;;;;;13.80;10.10;;;;;;;16.12;63.50;101486.81;827607;23;1323;-73
2022/10/31 01:27:12;;;;;;;14.73;10.23;;;;;;;16.07;63.75;101472.72;826922;23;1141;-73
2022/10/31 01:27:33;;;;;;;14.95;10.10;;;;;;;16.14;63.84;101485.13;827812;23;843;-73
2022/10/31 01:27:53;;;;;;;15.60;10.10;;;;;;;16.09;63.87;101485.91;830800;23;772;-72
2022/10/31 01:28:14;;;;;;;16.05;10.20;;;;;;;16.06;63.84;101481.47;831300;23;1063;-73
2022/10/31 01:28:43;;;;;;;14.53;10.13;;;;;;;16.04;63.90;101475.28;833194;23;709;-73
2022/10/31 01:29:06;;;;;;;12.05;9.93;;;;;;;16.08;63.91;101485.00;835491;23;1054;-73
2022/10/31 01:29:29;;;;;;;14.05;10.18;;;;;;;16.09;63.91;101483.28;836911;23;835;-73
2022/10/31 01:29:49;;;;;;;14.87;9.87;;;;;;;16.07;63.98;101483.25;831350;23;1239;-73
2022/10/31 01:30:10;;;;;;;15.63;9.55;;;;;;;16.14;64.03;101484.22;829072;23;1003;-72
2022/10/31 01:30:31;;;;;;;13.13;9.38;;;;;;;16.07;63.94;101477.97;827755;23;1476;-73
2022/10/31 01:30:52;;;;;;;14.43;10.02;;;;;;;16.10;63.81;101485.91;829239;23;1897;-73
2022/10/31 01:31:14;;;;;;;17.25;10.40;;;;;;;16.10;63.87;101477.16;829279;23;1052;-73
2022/10/31 01:31:37;;;;;;;16.90;10.23;;;;;;;16.14;64.04;101493.03;827847;23;1319;-73
2022/10/31 01:32:07;;;;;;;14.35;10.07;;;;;;;16.07;64.00;101477.06;829302;23;1027;-73
2022/10/31 01:32:30;;;;;;;15.98;10.15;;;;;;;16.09;63.94;101478.00;829382;23;828;-73
2022/10/31 01:32:52;;;;;;;17.13;9.82;;;;;;;16.14;64.04;101490.38;829254;23;783;-72
2022/10/31 01:33:13;;;;;;;16.88;9.70;;;;;;;16.12;63.90;101485.94;833128;23;1110;-73
2022/10/31 01:33:35;;;;;;;14.23;9.45;;;;;;;16.17;63.90;101489.56;831833;23;1239;-72
2022/10/31 01:33:56;;;;;;;14.65;9.55;;;;;;;16.13;63.72;101482.44;831364;23;1249;-73
2022/10/31 01:34:17;;;;;;;14.75;9.55;;;;;;;16.18;63.72;101493.97;825391;24;984;-73
2022/10/31 01:34:38;;;;;;;15.60;9.75;;;;;;;16.10;63.79;101472.75;833200;23;866;-72
2022/10/31 01:34:58;;;;;;;14.23;9.90;;;;;;;16.13;63.76;101478.09;823885;23;1193;-73
2022/10/31 01:35:19;;;;;;;14.80;10.47;;;;;;;16.14;63.78;101479.84;833160;23;1117;-72
2022/10/31 01:35:39;;;;;;;15.35;10.65;;;;;;;16.11;64.19;101471.03;833082;23;771;-72
2022/10/31 01:36:01;;;;;;;15.23;10.20;;;;;;;16.14;63.58;101487.75;829644;23;1147;-73
2022/10/31 01:36:30;;;;;;;13.65;9.30;;;;;;;16.13;63.87;101478.09;832706;23;1166;-72
2022/10/31 01:36:51;;;;;;;15.05;9.63;;;;;;;16.16;63.80;101482.50;831608;23;741;-72
2022/10/31 01:37:11;;;;;;;14.82;9.43;;;;;;;16.12;63.65;101480.69;830162;23;1204;-72
2022/10/31 01:37:32;;;;;;;14.25;9.30;;;;;;;16.13;63.57;101483.34;829028;23;1091;-73
2022/10/31 01:37:53;;;;;;;15.18;9.40;;;;;;;16.10;63.67;101471.88;831803;23;700;-73
2022/10/31 01:38:13;;;;;;;15.57;10.10;;;;;;;16.15;63.79;101481.63;827939;23;1217;-73
2022/10/31 01:38:34;;;;;;;14.38;10.20;;;;;;;16.21;63.67;101490.50;829261;23;776;-73
2022/10/31 01:39:01;;;;;;;13.30;9.93;;;;;;;16.20;63.73;101488.69;835620;23;1245;-73
2022/10/31 01:39:22;;;;;;;13.63;10.00;;;;;;;16.19;63.78;101482.56;831804;23;888;-72
2022/10/31 01:39:43;;;;;;;13.18;10.13;;;;;;;16.15;63.75;101480.72;832500;23;776;-73
2022/10/31 01:40:04;;;;;;;13.40;9.90;;;;;;;16.16;63.75;101477.22;827891;23;1189;-73
2022/10/31 01:40:29;;;;;;;16.02;9.57;;;;;;;16.18;63.74;101481.66;829355;23;800;-73
2022/10/31 01:40:50;;;;;;;17.17;9.73;;;;;;;16.14;63.85;101474.59;827760;23;862;-73
2022/10/31 01:41:13;;;;;;;17.73;10.52;;;;;;;16.20;63.73;101484.31;821174;24;1043;-73
2022/10/31 01:41:37;;;;;;;15.50;10.70;;;;;;;16.14;63.60;101474.59;827830;23;836;-73
2022/10/31 01:41:58;;;;;;;14.73;10.55;;;;;;;16.19;63.89;101482.56;827765;23;1120;-73